createdAt,value
2022-08-31T00:48:39.603Z,19.3
2022-08-31T04:31:38.762Z,19.3
2022-08-31T08:28:35.726Z,19.5
2022-08-31T08:29:10.382Z,19.7
2022-08-31T08:30:11.492Z,19.7
2022-08-31T08:31:10.532Z,19.6
2022-08-31T08:32:13.194Z,19.3
2022-08-31T08:33:10.662Z,19.4
2022-08-31T08:34:10.765Z,19.6
2022-08-31T08:35:14.230Z,19.6
2022-08-31T08:36:10.793Z,19.5
2022-08-31T08:37:11.038Z,19.7
2022-08-31T08:38:10.890Z,19.8
2022-08-31T08:39:11.759Z,19.9
2022-08-31T08:40:11.554Z,20.2
2022-08-31T08:41:11.115Z,20
2022-08-31T08:42:11.371Z,19.8
2022-08-31T08:43:11.195Z,19.9
2022-08-31T08:44:26.511Z,19.9
2022-08-31T08:45:11.510Z,20.1
2022-08-31T08:46:33.803Z,20.3
2022-08-31T08:48:19.248Z,20.4
2022-08-31T08:48:24.111Z,20.5
2022-08-31T08:49:11.429Z,20.7
2022-08-31T08:50:11.500Z,20.6
2022-08-31T08:51:14.481Z,20.6
2022-08-31T08:52:11.818Z,20.6
2022-08-31T08:53:13.421Z,20.9
2022-08-31T08:54:11.804Z,21.2
2022-08-31T08:55:12.883Z,21.2
2022-08-31T08:56:29.886Z,21.3
2022-08-31T08:57:16.910Z,21.4
2022-08-31T08:58:14.530Z,21.4
2022-08-31T08:59:15.937Z,21.2
2022-08-31T09:00:14.314Z,21.4
2022-08-31T09:01:12.516Z,21.4
2022-08-31T09:02:12.922Z,21.2
2022-08-31T09:03:18.772Z,20.9
2022-08-31T09:04:14.335Z,20.8
2022-08-31T09:05:13.396Z,20.8
2022-08-31T09:06:14.398Z,20.7
2022-08-31T09:07:14.169Z,20.6
2022-08-31T09:08:16.612Z,20.6
2022-08-31T09:09:15.108Z,20.5
2022-08-31T09:10:14.672Z,20.6
2022-08-31T09:11:12.470Z,20.3
2022-08-31T09:12:14.942Z,20.3
2022-08-31T09:13:15.514Z,20.3
2022-08-31T09:14:12.839Z,20.2
2022-08-31T09:15:14.470Z,20.1
2022-08-31T09:20:14.159Z,20
2022-08-31T09:21:17.435Z,20.1
2022-08-31T09:22:17.392Z,20.2
2022-08-31T09:23:13.557Z,20.2
2022-08-31T09:24:16.439Z,20.3
2022-08-31T09:25:18.408Z,20.1
2022-08-31T09:26:14.186Z,20
2022-08-31T09:27:15.006Z,19.9
2022-08-31T09:28:15.724Z,20
2022-08-31T09:29:14.573Z,20.1
2022-08-31T09:30:17.654Z,20.1
2022-08-31T09:31:15.511Z,20.3
2022-08-31T09:38:15.514Z,20.5
2022-08-31T09:39:15.626Z,20.5
2022-08-31T09:40:16.091Z,20.7
2022-08-31T09:41:14.685Z,20.8
2022-08-31T09:42:17.279Z,20.9
2022-08-31T09:43:17.936Z,20.8
2022-08-31T09:44:14.913Z,20.7
2022-08-31T09:45:20.205Z,20.7
2022-08-31T09:46:16.770Z,20.8
2022-08-31T09:47:16.268Z,20.7
2022-08-31T09:48:22.604Z,20.5
2022-08-31T09:49:15.639Z,20.7
2022-08-31T09:50:16.124Z,20.8
2022-08-31T09:51:15.990Z,20.8
2022-08-31T09:52:16.149Z,21
2022-08-31T09:53:16.821Z,21.2
2022-08-31T09:54:18.159Z,21.4
2022-08-31T09:55:17.143Z,21.2
2022-08-31T09:56:16.252Z,21.2
2022-08-31T09:57:17.125Z,21.3
2022-08-31T09:58:16.702Z,21.3
2022-08-31T09:59:16.446Z,21.3
2022-08-31T10:00:16.803Z,21.3
2022-08-31T10:01:16.542Z,21.4
2022-08-31T10:02:16.572Z,21.3
2022-08-31T10:03:18.274Z,21.3
2022-08-31T10:04:16.645Z,21.3
2022-08-31T10:05:18.669Z,21.3
2022-08-31T10:06:20.671Z,21.3
2022-08-31T10:07:17.061Z,21.3
2022-08-31T10:08:19.551Z,21.5
2022-08-31T10:09:19.336Z,21.5
2022-08-31T10:10:20.490Z,21.4
2022-08-31T10:11:18.400Z,21.4
2022-08-31T10:12:21.317Z,21.2
2022-08-31T10:13:17.203Z,21.2
2022-08-31T10:14:17.247Z,21.2
2022-08-31T10:15:17.789Z,21.2
2022-08-31T10:16:17.864Z,21.2
2022-08-31T10:17:18.996Z,20.9
2022-08-31T10:18:21.361Z,21
2022-08-31T10:19:17.987Z,21.1
2022-08-31T10:20:30.509Z,21.3
2022-08-31T10:21:43.780Z,21.2
2022-08-31T10:24:03.516Z,21
2022-08-31T10:25:02.078Z,20.9
2022-08-31T10:26:01.956Z,20.9
2022-08-31T10:27:03.618Z,20.9
2022-08-31T10:28:02.033Z,20.9
2022-08-31T10:29:03.679Z,20.9
2022-08-31T10:30:02.093Z,20.9
2022-08-31T10:31:04.269Z,21
2022-08-31T10:32:04.246Z,21.1
2022-08-31T10:33:02.217Z,21.1
2022-08-31T10:34:03.647Z,21.1
2022-08-31T10:35:04.222Z,21.2
2022-08-31T10:36:04.069Z,21.3
2022-08-31T10:37:03.469Z,21.3
2022-08-31T10:38:03.129Z,21.3
2022-08-31T10:39:03.984Z,21.2
2022-08-31T10:40:03.298Z,21.2
2022-08-31T10:41:03.134Z,21.3
2022-08-31T10:42:02.622Z,21.2
2022-08-31T10:43:03.373Z,21.2
2022-08-31T10:44:03.341Z,21.2
2022-08-31T10:45:03.028Z,21.4
2022-08-31T10:46:02.792Z,21.2
2022-08-31T10:47:04.493Z,21.1
2022-08-31T10:48:03.209Z,21
2022-08-31T10:49:04.836Z,21.1
2022-08-31T10:50:02.931Z,21.1
2022-08-31T10:51:03.012Z,21.1
2022-08-31T10:52:08.005Z,21.1
2022-08-31T10:53:03.276Z,20.9
2022-08-31T10:55:20.128Z,21
2022-08-31T10:57:50.995Z,21.2
2022-08-31T10:58:51.301Z,21.1
2022-08-31T10:59:54.115Z,21.2
2022-08-31T11:00:50.452Z,21.2
2022-08-31T11:01:50.480Z,21.4
2022-08-31T11:02:50.644Z,21.1
2022-08-31T11:03:50.392Z,21.1
2022-08-31T11:04:50.760Z,21
2022-08-31T11:05:51.053Z,21
2022-08-31T11:06:50.347Z,21
2022-08-31T11:07:50.348Z,21.1
2022-08-31T11:08:50.356Z,21
2022-08-31T11:09:50.553Z,20.9
2022-08-31T11:10:50.380Z,20.9
2022-08-31T11:11:53.169Z,21
2022-08-31T11:12:55.105Z,20.9
2022-08-31T11:13:52.479Z,20.9
2022-08-31T11:14:53.149Z,21
2022-08-31T11:15:51.765Z,21.1
2022-08-31T11:16:51.451Z,21.1
2022-08-31T11:17:50.628Z,21.2
2022-08-31T11:18:52.597Z,21.3
2022-08-31T11:19:51.015Z,21.4
2022-08-31T11:20:51.581Z,21.4
2022-08-31T11:21:52.179Z,21.4
2022-08-31T11:22:52.453Z,21.5
2022-08-31T11:23:52.382Z,21.4
2022-08-31T11:24:53.184Z,21.3
2022-08-31T11:25:52.738Z,21.4
2022-08-31T11:26:52.909Z,21.6
2022-08-31T11:27:53.144Z,21.6
2022-08-31T11:28:53.815Z,21.6
2022-08-31T11:29:51.363Z,21.7
2022-08-31T11:30:52.854Z,21.8
2022-08-31T11:31:53.594Z,21.8
2022-08-31T11:32:53.468Z,21.8
2022-08-31T11:34:14.471Z,21.8
2022-08-31T11:34:51.853Z,21.8
2022-08-31T11:35:52.539Z,21.8
2022-08-31T11:36:54.780Z,21.8
2022-08-31T11:37:51.523Z,22
2022-08-31T11:38:51.330Z,22.2
2022-08-31T11:39:52.253Z,22.1
2022-08-31T11:40:51.394Z,22.2
2022-08-31T11:41:51.420Z,22.2
2022-08-31T11:42:51.662Z,22.2
2022-08-31T11:43:51.463Z,22.1
2022-08-31T11:44:54.920Z,22.1
2022-08-31T11:45:52.173Z,22.1
2022-08-31T11:46:53.021Z,22.1
2022-08-31T11:47:52.308Z,36.2
2022-08-31T11:48:51.833Z,36.4
2022-08-31T11:49:51.932Z,22.5
2022-08-31T11:50:51.690Z,22.8
2022-08-31T11:51:53.208Z,22.9
2022-08-31T11:52:53.459Z,22.8
2022-08-31T11:53:51.901Z,22.7
2022-08-31T11:54:51.946Z,22.5
2022-08-31T11:55:51.940Z,22.6
2022-08-31T11:56:53.937Z,22.6
2022-08-31T11:57:51.930Z,22.5
2022-08-31T11:58:54.573Z,22.6
2022-08-31T11:59:52.968Z,22.7
2022-08-31T12:00:52.747Z,22.9
2022-08-31T12:01:52.602Z,22.8
2022-08-31T12:02:53.293Z,22.6
2022-08-31T12:03:52.449Z,22.4
2022-08-31T12:04:53.025Z,22.5
2022-08-31T12:05:52.842Z,22.6
2022-08-31T12:06:55.972Z,22.7
2022-08-31T12:07:52.959Z,22.7
2022-08-31T12:08:52.750Z,22.6
2022-08-31T12:09:55.942Z,22.5
2022-08-31T12:10:52.940Z,22.6
2022-08-31T12:11:53.146Z,22.5
2022-08-31T12:12:58.072Z,22.5
2022-08-31T12:14:15.720Z,22.5
2022-08-31T12:14:56.111Z,22.5
2022-08-31T12:15:55.874Z,22.4
2022-08-31T12:16:53.273Z,22.2
2022-08-31T12:17:54.430Z,22.2
2022-08-31T12:18:55.594Z,22.2
2022-08-31T12:19:55.793Z,22.3
2022-08-31T12:20:53.866Z,22.5
2022-08-31T12:21:54.616Z,23.1
2022-08-31T12:22:53.466Z,23.6
2022-08-31T12:23:53.485Z,23.9
2022-08-31T12:24:53.530Z,24.1
2022-08-31T12:25:53.676Z,24.4
2022-08-31T12:26:53.570Z,24.5
2022-08-31T12:27:53.652Z,24.7
2022-08-31T12:28:54.918Z,24.6
2022-08-31T12:29:53.815Z,24.9
2022-08-31T12:30:53.919Z,25
2022-08-31T12:31:54.309Z,24.8
2022-08-31T12:32:56.097Z,24.7
2022-08-31T12:33:53.994Z,24.8
2022-08-31T12:34:58.994Z,24.9
2022-08-31T12:35:56.156Z,24.8
2022-08-31T12:36:58.662Z,24.4
2022-08-31T12:37:55.871Z,24.2
2022-08-31T12:38:55.709Z,24
2022-08-31T12:39:54.409Z,23.9
2022-08-31T12:40:54.246Z,23.6
2022-08-31T12:41:54.420Z,23.3
2022-08-31T12:42:59.625Z,23.2
2022-08-31T12:43:54.282Z,23.2
2022-08-31T12:44:56.094Z,23.1
2022-08-31T12:45:55.610Z,23.2
2022-08-31T12:46:54.609Z,23.6
2022-08-31T12:47:54.569Z,24
2022-08-31T12:48:54.421Z,24.3
2022-08-31T12:49:56.442Z,24.6
2022-08-31T12:50:54.495Z,24.8
2022-08-31T12:51:54.819Z,25
2022-08-31T12:52:55.616Z,25.1
2022-08-31T12:53:54.584Z,25.2
2022-08-31T12:54:54.643Z,25.2
2022-08-31T12:55:55.253Z,25.3
2022-08-31T12:56:54.705Z,25.5
2022-08-31T12:57:54.700Z,25.7
2022-08-31T12:58:56.620Z,25.7
2022-08-31T13:00:01.434Z,25.8
2022-08-31T13:00:56.276Z,25.9
2022-08-31T13:01:55.057Z,26
2022-08-31T13:03:03.514Z,25.7
2022-08-31T13:04:32.737Z,25.6
2022-08-31T13:05:03.516Z,25.8
2022-08-31T13:05:55.748Z,25.7
2022-08-31T13:06:55.077Z,25.6
2022-08-31T13:07:55.590Z,25.4
2022-08-31T13:08:55.111Z,25.5
2022-08-31T13:09:55.147Z,25.5
2022-08-31T13:10:55.569Z,25.5
2022-08-31T13:11:55.840Z,25.6
2022-08-31T13:12:57.389Z,25.8
2022-08-31T13:13:56.481Z,25.8
2022-08-31T13:14:55.779Z,25.6
2022-08-31T13:15:55.654Z,25.4
2022-08-31T13:16:57.697Z,25.4
2022-08-31T13:17:57.625Z,25
2022-08-31T13:18:57.526Z,24.6
2022-08-31T13:19:56.112Z,24.1
2022-08-31T13:20:57.486Z,24.1
2022-08-31T13:21:56.381Z,24.2
2022-08-31T13:22:56.153Z,24.2
2022-08-31T13:23:57.275Z,24.2
2022-08-31T13:24:57.757Z,24.3
2022-08-31T13:25:56.337Z,24.4
2022-08-31T13:26:56.439Z,24.4
2022-08-31T13:27:59.555Z,24.4
2022-08-31T13:28:57.107Z,24.2
2022-08-31T13:29:58.318Z,24.1
2022-08-31T13:30:58.646Z,24.1
2022-08-31T13:31:57.520Z,24
2022-08-31T13:32:57.191Z,23.9
2022-08-31T13:33:59.582Z,23.9
2022-08-31T13:34:57.502Z,23.8
2022-08-31T13:35:57.287Z,23.7
2022-08-31T13:36:57.327Z,23.8
2022-08-31T13:38:02.285Z,23.7
2022-08-31T13:38:57.445Z,23.6
2022-08-31T13:39:57.396Z,23.6
2022-08-31T13:40:59.561Z,23.7
2022-08-31T13:42:00.332Z,24
2022-08-31T13:42:59.365Z,24.5
2022-08-31T13:43:59.933Z,24.7
2022-08-31T13:44:58.610Z,24.9
2022-08-31T13:45:58.810Z,25.2
2022-08-31T13:46:59.300Z,25.2
2022-08-31T13:47:58.316Z,25.5
2022-08-31T13:48:59.943Z,25.6
2022-08-31T13:50:05.054Z,26
2022-08-31T13:50:57.882Z,25.9
2022-08-31T13:52:00.071Z,25.6
2022-08-31T13:53:22.876Z,25.3
2022-08-31T13:53:59.238Z,25.1
2022-08-31T13:54:58.054Z,25.1
2022-08-31T13:55:58.017Z,25
2022-08-31T13:57:00.071Z,24.9
2022-08-31T13:57:58.048Z,24.8
2022-08-31T13:59:50.191Z,24.9
2022-08-31T14:02:20.552Z,25.1
2022-08-31T14:03:46.989Z,25.3
2022-08-31T14:04:46.995Z,25.6
2022-08-31T14:05:47.030Z,25.7
2022-08-31T14:06:48.743Z,25.8
2022-08-31T14:07:47.931Z,25.9
2022-08-31T14:08:47.291Z,25.8
2022-08-31T14:09:52.149Z,25.7
2022-08-31T14:10:47.424Z,25.6
2022-08-31T14:11:47.770Z,25.7
2022-08-31T14:12:51.886Z,25.6
2022-08-31T14:13:47.307Z,25.7
2022-08-31T14:14:47.307Z,25.8
2022-08-31T14:15:47.336Z,26
2022-08-31T14:16:52.168Z,26
2022-08-31T14:18:47.601Z,26.3
2022-08-31T14:19:49.314Z,26.2
2022-08-31T14:21:10.179Z,26.3
2022-08-31T14:21:55.476Z,26.2
2022-08-31T14:22:47.674Z,26.2
2022-08-31T14:23:48.007Z,26
2022-08-31T14:24:47.780Z,25.7
2022-08-31T14:25:48.092Z,25.7
2022-08-31T14:26:50.109Z,25.8
2022-08-31T14:27:50.089Z,25.6
2022-08-31T14:28:49.567Z,25.6
2022-08-31T14:30:05.420Z,25.3
2022-08-31T14:30:49.830Z,25
2022-08-31T14:31:48.304Z,24.9
2022-08-31T14:32:48.380Z,24.9
2022-08-31T14:33:48.747Z,24.9
2022-08-31T14:34:49.446Z,24.9
2022-08-31T14:35:48.550Z,25
2022-08-31T14:36:48.633Z,24.9
2022-08-31T14:37:48.683Z,24.8
2022-08-31T14:38:50.252Z,24.7
2022-08-31T14:39:48.822Z,24.7
2022-08-31T14:40:49.139Z,24.6
2022-08-31T14:41:50.250Z,24.6
2022-08-31T14:42:48.935Z,24.6
2022-08-31T14:43:49.005Z,24.7
2022-08-31T14:45:32.274Z,24.6
2022-08-31T14:45:51.449Z,24.6
2022-08-31T14:46:49.220Z,24.7
2022-08-31T14:47:50.353Z,24.6
2022-08-31T14:48:49.129Z,24.6
2022-08-31T14:49:49.432Z,24.6
2022-08-31T14:50:49.251Z,24.3
2022-08-31T14:51:49.437Z,24.2
2022-08-31T14:52:51.593Z,24.2
2022-08-31T14:53:49.452Z,24.1
2022-08-31T14:54:49.799Z,24.2
2022-08-31T14:55:49.297Z,24.1
2022-08-31T14:56:51.311Z,24.1
2022-08-31T14:57:54.450Z,23.9
2022-08-31T14:58:49.465Z,23.8
2022-08-31T14:59:49.540Z,24
2022-08-31T15:00:53.374Z,24
2022-08-31T15:01:49.721Z,23.8
2022-08-31T15:02:51.236Z,23.7
2022-08-31T15:03:49.942Z,23.8
2022-08-31T15:04:49.633Z,23.8
2022-08-31T15:05:50.181Z,23.7
2022-08-31T15:06:50.912Z,23.6
2022-08-31T15:07:50.023Z,23.5
2022-08-31T15:08:50.921Z,23.4
2022-08-31T15:09:50.181Z,23.4
2022-08-31T15:10:51.254Z,23.4
2022-08-31T15:11:50.985Z,23.5
2022-08-31T15:12:49.932Z,23.5
2022-08-31T15:13:49.914Z,23.5
2022-08-31T15:14:50.521Z,23.4
2022-08-31T15:15:50.655Z,23.5
2022-08-31T15:16:50.275Z,23.4
2022-08-31T15:17:52.104Z,23.4
2022-08-31T15:18:50.379Z,23.4
2022-08-31T15:19:51.338Z,23.4
2022-08-31T15:20:50.738Z,23.4
2022-08-31T15:21:52.467Z,23.4
2022-08-31T15:22:50.307Z,23.4
2022-08-31T15:23:52.420Z,23.4
2022-08-31T15:24:50.377Z,23.4
2022-08-31T15:25:50.603Z,23.4
2022-08-31T15:26:50.329Z,23.5
2022-08-31T15:27:50.675Z,23.7
2022-08-31T15:28:50.489Z,23.8
2022-08-31T15:29:52.881Z,24
2022-08-31T15:30:55.788Z,24.1
2022-08-31T15:31:50.529Z,24.2
2022-08-31T15:32:57.603Z,24.3
2022-08-31T15:33:50.645Z,24.3
2022-08-31T15:34:51.660Z,24.4
2022-08-31T15:35:51.220Z,24.5
2022-08-31T15:36:52.721Z,24.6
2022-08-31T15:37:55.987Z,24.6
2022-08-31T15:38:51.019Z,24.7
2022-08-31T15:39:52.527Z,24.7
2022-08-31T15:40:51.570Z,24.5
2022-08-31T15:41:56.206Z,24.4
2022-08-31T15:42:54.081Z,24.4
2022-08-31T15:43:56.341Z,24.4
2022-08-31T15:44:56.420Z,24.3
2022-08-31T15:45:51.564Z,24.3
2022-08-31T15:46:51.738Z,24.3
2022-08-31T15:47:53.149Z,24.4
2022-08-31T15:48:52.916Z,24
2022-08-31T15:49:58.714Z,24.1
2022-08-31T15:50:52.471Z,24.1
2022-08-31T15:51:53.685Z,24.1
2022-08-31T15:52:52.184Z,24.2
2022-08-31T15:54:06.410Z,24.2
2022-08-31T15:54:53.044Z,24.1
2022-08-31T15:55:52.793Z,24.1
2022-08-31T15:56:52.118Z,24.1
2022-08-31T15:57:52.125Z,24.1
2022-08-31T15:58:58.286Z,24.2
2022-08-31T15:59:53.258Z,24.2
2022-08-31T16:00:52.300Z,24.2
2022-08-31T16:01:52.288Z,24.3
2022-08-31T16:02:52.233Z,24.3
2022-08-31T16:05:32.446Z,24.1
2022-08-31T16:05:58.063Z,24.1
2022-08-31T16:06:57.393Z,23.9
2022-08-31T16:07:53.255Z,23.9
2022-08-31T16:09:40.588Z,24
2022-08-31T16:09:52.501Z,24.1
2022-08-31T16:10:52.513Z,24.1
2022-08-31T16:11:54.500Z,24.1
2022-08-31T16:12:52.560Z,24.1
2022-08-31T16:13:52.634Z,23.9
2022-08-31T16:14:52.663Z,23.8
2022-08-31T16:15:54.237Z,23.8
2022-08-31T16:16:53.811Z,23.7
2022-08-31T16:17:52.725Z,23.7
2022-08-31T16:18:52.779Z,23.6
2022-08-31T16:19:52.830Z,23.7
2022-08-31T16:20:52.892Z,23.5
2022-08-31T16:21:53.098Z,23.6
2022-08-31T16:22:52.946Z,23.7
2022-08-31T16:23:53.892Z,23.7
2022-08-31T16:24:53.643Z,23.6
2022-08-31T16:25:53.531Z,23.7
2022-08-31T16:26:53.060Z,23.7
2022-08-31T16:27:53.053Z,23.6
2022-08-31T16:28:53.521Z,23.6
2022-08-31T16:29:53.127Z,23.5
2022-08-31T16:30:54.665Z,23.5
2022-08-31T16:31:53.306Z,23.4
2022-08-31T16:33:03.381Z,23.3
2022-08-31T16:33:58.839Z,23.3
2022-08-31T16:34:54.825Z,23.4
2022-08-31T16:35:53.349Z,23.3
2022-08-31T16:36:53.399Z,23.3
2022-08-31T16:37:53.435Z,23.2
2022-08-31T16:38:53.448Z,23.1
2022-08-31T16:39:54.664Z,23.2
2022-08-31T16:40:54.128Z,23.2
2022-08-31T16:41:55.956Z,23.2
2022-08-31T16:42:53.781Z,23.1
2022-08-31T16:44:18.336Z,23.1
2022-08-31T16:44:57.406Z,23
2022-08-31T16:46:00.220Z,23
2022-08-31T16:46:58.887Z,23.1
2022-08-31T16:47:53.914Z,23.2
2022-08-31T16:48:54.021Z,23.3
2022-08-31T16:49:57.037Z,23.4
2022-08-31T16:50:54.487Z,23.4
2022-08-31T16:51:54.701Z,23.3
2022-08-31T16:52:55.561Z,23.4
2022-08-31T16:54:01.395Z,23.4
2022-08-31T16:54:54.487Z,23.5
2022-08-31T16:55:54.465Z,23.5
2022-08-31T16:56:54.970Z,23.5
2022-08-31T16:57:54.656Z,23.6
2022-08-31T16:58:55.597Z,23.5
2022-08-31T16:59:56.378Z,23.4
2022-08-31T17:00:57.621Z,23.4
2022-08-31T17:01:55.083Z,23.4
2022-08-31T17:03:00.643Z,23.5
2022-08-31T17:03:54.894Z,23.5
2022-08-31T17:04:54.943Z,23.5
2022-08-31T17:05:56.656Z,23.3
2022-08-31T17:06:56.754Z,23.3
2022-08-31T17:07:55.253Z,23.4
2022-08-31T17:08:55.516Z,23.4
2022-08-31T17:10:00.410Z,23.5
2022-08-31T17:10:55.406Z,23.5
2022-08-31T17:11:57.451Z,23.5
2022-08-31T17:12:55.306Z,23.5
2022-08-31T17:13:55.161Z,23.5
2022-08-31T17:14:56.430Z,23.5
2022-08-31T17:15:56.649Z,23.4
2022-08-31T17:16:55.307Z,23.3
2022-08-31T17:17:55.311Z,23.3
2022-08-31T17:19:01.873Z,23.4
2022-08-31T17:19:57.877Z,23.4
2022-08-31T17:20:55.540Z,23.4
2022-08-31T17:21:56.144Z,23.4
2022-08-31T17:22:55.972Z,23.4
2022-08-31T17:23:55.600Z,23.4
2022-08-31T17:24:55.839Z,23.3
2022-08-31T17:25:55.540Z,23.3
2022-08-31T17:26:55.920Z,23.3
2022-08-31T17:27:59.171Z,23.2
2022-08-31T17:28:55.855Z,23.1
2022-08-31T17:29:58.057Z,23.1
2022-08-31T17:30:55.985Z,23.1
2022-08-31T17:31:55.743Z,23.1
2022-08-31T17:32:55.824Z,23.2
2022-08-31T17:33:55.739Z,23.2
2022-08-31T17:34:55.788Z,23.3
2022-08-31T17:35:56.404Z,23.3
2022-08-31T17:36:58.184Z,23.3
2022-08-31T17:37:55.983Z,23.3
2022-08-31T17:38:56.128Z,23.3
2022-08-31T17:39:58.510Z,23.2
2022-08-31T17:40:58.932Z,23.1
2022-08-31T17:41:55.982Z,23.1
2022-08-31T17:42:59.791Z,23.1
2022-08-31T17:43:56.047Z,23.1
2022-08-31T17:44:56.048Z,23
2022-08-31T17:45:56.114Z,23
2022-08-31T17:46:56.459Z,23
2022-08-31T17:47:56.896Z,22.9
2022-08-31T17:48:57.957Z,22.9
2022-08-31T17:49:57.614Z,22.9
2022-08-31T17:50:56.262Z,23
2022-08-31T17:51:56.290Z,22.9
2022-08-31T17:52:58.840Z,22.8
2022-08-31T17:53:56.440Z,22.8
2022-08-31T17:54:57.631Z,22.8
2022-08-31T17:55:58.893Z,22.9
2022-08-31T17:56:57.960Z,22.8
2022-08-31T17:57:56.573Z,22.9
2022-08-31T17:58:56.657Z,22.9
2022-08-31T17:59:56.701Z,22.9
2022-08-31T18:00:59.759Z,22.9
2022-08-31T18:01:58.609Z,22.9
2022-08-31T18:02:57.589Z,22.9
2022-08-31T18:03:57.020Z,22.9
2022-08-31T18:04:57.848Z,22.9
2022-08-31T18:05:59.634Z,22.9
2022-08-31T18:06:58.889Z,22.9
2022-08-31T18:07:58.044Z,22.9
2022-08-31T18:08:57.373Z,22.9
2022-08-31T18:09:57.428Z,22.9
2022-08-31T18:10:57.710Z,22.9
2022-08-31T18:11:59.039Z,22.8
2022-08-31T18:13:00.465Z,22.7
2022-08-31T18:13:58.914Z,22.7
2022-08-31T18:14:59.531Z,22.7
2022-08-31T18:15:59.870Z,22.7
2022-08-31T18:16:57.767Z,22.8
2022-08-31T18:17:59.399Z,22.8
2022-08-31T18:18:58.229Z,22.8
2022-08-31T18:19:59.288Z,22.6
2022-08-31T18:20:58.912Z,22.5
2022-08-31T18:22:03.182Z,22.5
2022-08-31T18:23:06.367Z,22.5
2022-08-31T18:24:05.938Z,22.6
2022-08-31T18:25:00.376Z,22.5
2022-08-31T18:25:58.524Z,22.5
2022-08-31T18:27:05.808Z,22.5
2022-08-31T18:28:02.294Z,22.6
2022-08-31T18:28:58.563Z,22.5
2022-08-31T18:29:58.923Z,22.4
2022-08-31T18:31:18.775Z,22.4
2022-08-31T18:32:03.885Z,22.3
2022-08-31T18:32:59.894Z,22.3
2022-08-31T18:33:58.714Z,22.3
2022-08-31T18:34:58.654Z,22.3
2022-08-31T18:35:59.999Z,22.3
2022-08-31T18:37:01.131Z,22.2
2022-08-31T18:37:58.749Z,22.2
2022-08-31T18:39:00.076Z,22.3
2022-08-31T18:39:59.657Z,22.3
2022-08-31T18:40:58.598Z,22.2
2022-08-31T18:41:59.683Z,22.1
2022-08-31T18:43:00.653Z,22.2
2022-08-31T18:43:58.655Z,22.3
2022-08-31T18:44:58.944Z,22.1
2022-08-31T18:46:00.801Z,22
2022-08-31T18:47:01.048Z,22
2022-08-31T18:48:24.161Z,21.9
2022-08-31T18:49:11.694Z,21.8
2022-08-31T18:49:59.051Z,21.7
2022-08-31T18:50:59.668Z,21.6
2022-08-31T18:52:02.246Z,21.5
2022-08-31T18:52:59.189Z,21.5
2022-08-31T18:53:58.850Z,21.6
2022-08-31T18:55:04.848Z,21.6
2022-08-31T18:56:01.631Z,21.6
2022-08-31T18:56:59.127Z,21.5
2022-08-31T18:57:58.938Z,21.5
2022-08-31T18:59:20.312Z,21.5
2022-08-31T19:00:56.606Z,21.5
2022-08-31T19:01:01.516Z,21.6
2022-08-31T19:03:25.825Z,21.5
2022-08-31T19:04:00.225Z,21.5
2022-08-31T19:04:59.161Z,21.4
2022-08-31T19:05:59.403Z,21.3
2022-08-31T19:07:00.732Z,21.4
2022-08-31T19:08:00.864Z,21.4
2022-08-31T19:08:59.844Z,21.3
2022-08-31T19:09:59.943Z,21.4
2022-08-31T19:10:59.650Z,21.3
2022-08-31T19:11:59.630Z,21.3
2022-08-31T19:12:59.829Z,21.3
2022-08-31T19:13:59.819Z,21.3
2022-08-31T19:15:01.659Z,21.4
2022-08-31T19:16:08.058Z,21.4
2022-08-31T19:17:01.213Z,21.3
2022-08-31T19:18:00.756Z,21.3
2022-08-31T19:19:00.143Z,21.2
2022-08-31T19:20:06.180Z,21.1
2022-08-31T19:21:05.951Z,21.1
2022-08-31T19:22:05.767Z,21.2
2022-08-31T19:23:04.528Z,21.3
2022-08-31T19:24:00.480Z,21.3
2022-08-31T19:25:02.761Z,21.2
2022-08-31T19:26:01.306Z,21.2
2022-08-31T19:27:00.569Z,21.1
2022-08-31T19:28:01.653Z,21.1
2022-08-31T19:29:00.725Z,21
2022-08-31T19:30:02.159Z,21
2022-08-31T19:31:00.707Z,21
2022-08-31T19:32:00.668Z,21
2022-08-31T19:33:02.989Z,20.9
2022-08-31T19:34:07.837Z,20.7
2022-08-31T19:35:00.886Z,20.8
2022-08-31T19:36:03.616Z,20.7
2022-08-31T19:37:09.470Z,20.6
2022-08-31T19:38:02.686Z,20.7
2022-08-31T19:39:09.053Z,20.7
2022-08-31T19:40:35.382Z,20.8
2022-08-31T19:41:08.143Z,20.7
2022-08-31T19:42:00.944Z,20.7
2022-08-31T19:43:42.866Z,20.7
2022-08-31T19:44:07.579Z,20.8
2022-08-31T19:46:11.804Z,20.7
2022-08-31T19:47:01.440Z,20.8
2022-08-31T19:48:01.562Z,20.8
2022-08-31T19:49:01.200Z,20.8
2022-08-31T19:50:01.466Z,20.8
2022-08-31T19:51:03.718Z,20.7
2022-08-31T19:52:01.240Z,20.7
2022-08-31T19:53:08.335Z,20.5
2022-08-31T19:54:07.811Z,20.6
2022-08-31T19:55:01.838Z,20.6
2022-08-31T19:56:03.796Z,20.5
2022-08-31T19:57:02.036Z,20.5
2022-08-31T19:58:01.431Z,20.5
2022-08-31T19:59:08.800Z,20.5
2022-08-31T20:00:01.866Z,20.5
2022-08-31T20:01:04.122Z,20.5
2022-08-31T20:02:01.630Z,20.5
2022-08-31T20:04:47.725Z,20.4
2022-08-31T20:05:02.730Z,20.5
2022-08-31T20:06:01.785Z,20.5
2022-08-31T20:07:03.202Z,20.5
2022-08-31T20:08:01.733Z,20.4
2022-08-31T20:09:03.826Z,20.4
2022-08-31T20:10:01.833Z,20.4
2022-08-31T20:11:02.736Z,20.4
2022-08-31T20:12:01.862Z,20.4
2022-08-31T20:13:06.905Z,20.5
2022-08-31T20:14:04.978Z,20.5
2022-08-31T20:15:02.289Z,20.4
2022-08-31T20:16:02.055Z,20.4
2022-08-31T20:17:02.862Z,20.3
2022-08-31T20:18:02.069Z,20.3
2022-08-31T20:19:02.313Z,20.2
2022-08-31T20:20:02.206Z,20.3
2022-08-31T20:21:02.290Z,20.3
2022-08-31T20:22:02.675Z,20.2
2022-08-31T20:23:02.473Z,20.2
2022-08-31T20:24:02.684Z,20.3
2022-08-31T20:25:02.642Z,20.2
2022-08-31T20:26:02.697Z,20.2
2022-08-31T20:27:09.313Z,20.2
2022-08-31T20:28:05.265Z,20.2
2022-08-31T20:29:03.754Z,20.2
2022-08-31T20:30:07.942Z,20.2
2022-08-31T20:31:20.908Z,20.2
2022-08-31T20:32:04.180Z,20.3
2022-08-31T20:33:36.752Z,20.2
2022-08-31T20:34:18.369Z,20.2
2022-08-31T20:35:16.325Z,20.1
2022-08-31T20:36:08.340Z,20.1
2022-08-31T20:37:13.414Z,20.3
2022-08-31T20:38:14.012Z,20.3
2022-08-31T20:39:06.982Z,20.3
2022-08-31T20:40:27.651Z,20.2
2022-08-31T20:41:15.273Z,20.2
2022-08-31T20:42:08.538Z,20.3
2022-08-31T20:43:21.036Z,20.2
2022-08-31T20:44:04.871Z,20.2
2022-08-31T20:45:13.651Z,20.1
2022-08-31T20:46:24.121Z,20.2
2022-08-31T20:47:30.505Z,20.1
2022-08-31T20:48:42.307Z,20.1
2022-08-31T20:49:03.970Z,20.1
2022-08-31T20:50:04.830Z,20.1
2022-08-31T20:51:05.212Z,20
2022-08-31T20:52:05.163Z,20.1
2022-08-31T20:53:11.356Z,20
2022-08-31T20:54:23.942Z,20
2022-08-31T20:55:03.951Z,20
2022-08-31T20:56:03.974Z,20
2022-08-31T20:57:04.372Z,20
2022-08-31T20:58:04.002Z,20
2022-08-31T20:59:04.011Z,19.9
2022-08-31T21:00:04.601Z,20
2022-08-31T21:01:04.633Z,20.1
2022-08-31T21:02:04.453Z,20
2022-08-31T21:03:04.448Z,20
2022-08-31T21:04:04.228Z,20.1
2022-08-31T21:05:34.309Z,19.9
2022-08-31T21:06:04.533Z,19.8
2022-08-31T21:07:04.450Z,19.9
2022-08-31T21:08:04.361Z,19.8
2022-08-31T21:09:04.348Z,19.6
2022-08-31T21:10:05.731Z,19.7
2022-08-31T21:11:07.439Z,19.8
2022-08-31T21:12:06.177Z,19.7
2022-08-31T21:13:04.515Z,19.6
2022-08-31T21:14:06.593Z,19.7
2022-08-31T21:15:04.603Z,19.6
2022-08-31T21:16:05.121Z,19.5
2022-08-31T21:17:06.585Z,19.6
2022-08-31T21:18:05.429Z,19.6
2022-08-31T21:19:04.694Z,19.6
2022-08-31T21:20:04.715Z,19.5
2022-08-31T21:21:04.726Z,19.4
2022-08-31T21:22:04.851Z,19.2
2022-08-31T21:23:04.826Z,19.2
2022-08-31T21:24:04.855Z,19.1
2022-08-31T21:25:04.889Z,19
2022-08-31T21:26:04.918Z,19.1
2022-08-31T21:27:05.403Z,19
2022-08-31T21:28:04.998Z,19
2022-08-31T21:29:04.993Z,18.9
2022-08-31T21:30:05.053Z,18.9
2022-08-31T21:31:05.372Z,18.9
2022-08-31T21:32:05.955Z,19
2022-08-31T21:33:05.553Z,19.2
2022-08-31T21:34:12.126Z,19.1
2022-08-31T21:35:07.183Z,19.1
2022-08-31T21:36:07.599Z,19.1
2022-08-31T21:37:07.409Z,19
2022-08-31T21:38:06.806Z,19
2022-08-31T21:39:06.820Z,19
2022-08-31T21:40:05.775Z,19
2022-08-31T21:41:05.788Z,18.9
2022-08-31T21:42:07.769Z,18.8
2022-08-31T21:43:05.860Z,18.9
2022-08-31T21:44:05.926Z,18.7
2022-08-31T21:45:07.506Z,18.7
2022-08-31T21:46:06.114Z,18.9
2022-08-31T21:47:06.931Z,18.8
2022-08-31T21:48:06.270Z,18.7
2022-08-31T21:49:06.180Z,18.6
2022-08-31T21:50:07.756Z,18.5
2022-08-31T21:51:06.377Z,18.6
2022-08-31T21:52:06.337Z,18.6
2022-08-31T21:53:07.750Z,18.6
2022-08-31T21:54:07.697Z,18.6
2022-08-31T21:55:06.667Z,18.5
2022-08-31T21:56:07.710Z,18.6
2022-08-31T21:57:06.548Z,18.5
2022-08-31T21:58:06.650Z,18.6
2022-08-31T21:59:07.324Z,18.6
2022-08-31T22:00:06.657Z,18.6
2022-08-31T22:01:06.631Z,18.6
2022-08-31T22:02:06.785Z,18.4
2022-08-31T22:03:06.745Z,18.4
2022-08-31T22:04:07.746Z,18.5
2022-08-31T22:05:09.362Z,18.5
2022-08-31T22:06:08.739Z,18.6
2022-08-31T22:07:07.558Z,18.7
2022-08-31T22:08:08.545Z,18.8
2022-08-31T22:09:11.811Z,18.7
2022-08-31T22:10:06.875Z,18.7
2022-08-31T22:11:07.617Z,18.7